Time;durP1;ratioP1;P1;durP2;ratioP2;P2;SDS_P1;SDS_P2;PMS_P1;PMS_P2;Temp;Humidity;BMP_temperature;BMP_pressure;BME280_temperature;BME280_humidity;BME280_pressure;Samples;Min_cycle;Max_cycle;Signal;HPM_P1;HPM_P2
2023/01/14 00:01:51;;;;;;;;;5.50;3.75;;;;;9.78;69.10;101618.63;6254470;22;45248;-86
2023/01/14 00:04:16;;;;;;;;;2.25;2.25;;;;;9.78;69.15;101607.22;6250551;22;45290;-87
2023/01/14 00:06:42;;;;;;;;;2.25;1.75;;;;;9.80;69.56;101608.13;6251112;22;45236;-87
2023/01/14 00:09:11;;;;;;;;;3.25;3.25;;;;;9.86;69.70;101610.84;6251490;22;46053;-88
2023/01/14 00:11:51;;;;;;;;;3.25;2.50;;;;;9.93;69.64;101617.94;6278684;22;45330;-88
2023/01/14 00:14:21;;;;;;;;;1.50;1.50;;;;;9.97;69.77;101613.59;6250558;22;45389;-88
2023/01/14 00:16:47;;;;;;;;;2.25;2.25;;;;;9.90;70.05;101592.50;6252475;22;45359;-87
2023/01/14 00:19:14;;;;;;;;;2.75;2.75;;;;;9.91;70.19;101574.97;6276184;22;45404;-87
2023/01/14 00:21:41;;;;;;;;;5.00;4.25;;;;;9.93;70.31;101571.47;6251187;22;45195;-89
2023/01/14 00:24:08;;;;;;;;;4.50;2.25;;;;;9.96;70.29;101572.38;6252661;22;45512;-89
2023/01/14 00:26:36;;;;;;;;;3.00;3.00;;;;;10.03;70.65;101577.75;6252030;22;45457;-88
2023/01/14 00:29:02;;;;;;;;;1.50;1.00;;;;;9.94;70.62;101546.97;6251280;22;47047;-88
2023/01/14 00:31:35;;;;;;;;;2.25;2.00;;;;;9.96;70.56;101548.72;6252171;22;45185;-89
2023/01/14 00:34:12;;;;;;;;;3.00;1.00;;;;;10.10;70.85;101573.44;6248560;22;45481;-88
2023/01/14 00:36:37;;;;;;;;;3.00;3.00;;;;;10.08;71.24;101556.78;6247528;22;45294;-89
2023/01/14 00:39:04;;;;;;;;;2.00;2.00;;;;;10.01;71.58;101541.78;6249172;22;47093;-87
2023/01/14 00:41:30;;;;;;;;;2.75;1.00;;;;;10.11;71.62;101544.53;6248846;22;45693;-89
2023/01/14 00:43:58;;;;;;;;;2.00;2.00;;;;;10.06;72.02;101532.19;6249654;22;45257;-86
2023/01/14 00:46:32;;;;;;;;;2.00;1.25;;;;;10.11;72.33;101539.25;6249309;22;45561;-89
2023/01/14 00:48:59;;;;;;;;;3.33;2.00;;;;;10.13;72.41;101527.00;6246039;22;47276;-86
2023/01/14 00:51:25;;;;;;;;;1.00;1.00;;;;;10.16;72.65;101527.03;6247092;22;45413;-88
2023/01/14 00:54:14;;;;;;;;;1.25;0.25;;;;;10.28;73.04;101538.59;6248804;22;45448;-86
2023/01/14 00:56:52;;;;;;;;;3.00;1.00;;;;;10.21;73.33;101516.56;6246157;22;45313;-88
2023/01/14 00:59:23;;;;;;;;;1.00;1.00;;;;;10.28;73.18;101526.31;6246844;22;47008;-86
2023/01/14 01:01:51;;;;;;;;;2.67;1.00;;;;;10.26;73.49;101525.34;6247259;22;45276;-86
2023/01/14 01:04:20;;;;;;;;;1.00;1.00;;;;;10.27;73.30;101518.38;6249519;22;45119;-87
2023/01/14 01:06:55;;;;;;;;;;;;;;;;;;;;;
2023/01/14 01:09:36;;;;;;;;;;;;;;;;;;;;;
2023/01/14 01:12:12;;;;;;;;;1.00;1.00;;;;;10.24;73.71;101506.06;6248147;22;72912;-86
2023/01/14 01:14:47;;;;;;;;;2.50;2.00;;;;;10.25;73.80;101493.78;6246633;22;45413;-86
2023/01/14 01:17:42;;;;;;;;;;;;;;;;;;;;;
2023/01/14 01:20:27;;;;;;;;;;;;;;;;;;;;;
2023/01/14 01:26:48;;;;;;;;;;;;;;;;;;;;;
2023/01/14 01:29:49;;;;;;;;;;;;;;;;;;;;;
2023/01/14 01:32:46;;;;;;;;;2.75;2.50;;;;;10.21;74.81;101470.94;6241908;22;73901;-85
2023/01/14 01:35:32;;;;;;;;;3.50;2.00;;;;;10.18;74.68;101461.25;6271762;22;45110;-85
2023/01/14 01:38:06;;;;;;;;;4.75;2.25;;;;;10.24;75.08;101458.69;6252708;22;45377;-86
2023/01/14 01:41:10;;;;;;;;;3.75;2.00;;;;;10.15;74.94;101434.91;6252070;22;45472;-85
2023/01/14 01:44:14;;;;;;;;;;;;;;;;;;;;;
2023/01/14 01:46:43;;;;;;;;;1.33;1.33;;;;;10.25;75.32;101470.97;6278582;22;72503;-84
2023/01/14 01:49:51;;;;;;;;;;;;;;;;;;;;;
2023/01/14 01:52:30;;;;;;;;;2.00;2.00;;;;;10.33;75.48;101478.97;6279145;22;72584;-86
2023/01/14 01:55:01;;;;;;;;;1.00;1.00;;;;;10.24;75.64;101444.66;6251318;22;47603;-86
2023/01/14 01:57:27;;;;;;;;;1.00;1.00;;;;;10.34;75.78;101464.94;6252229;22;46131;-85
2023/01/14 01:59:57;;;;;;;;;1.50;1.50;;;;;10.32;75.65;101453.53;6279575;22;45151;-85
2023/01/14 02:02:31;;;;;;;;;2.00;2.00;;;;;10.33;76.07;101452.66;6279919;22;45377;-87
2023/01/14 02:04:56;;;;;;;;;2.00;2.00;;;;;10.42;76.19;101463.25;6279985;22;45329;-86
2023/01/14 02:07:44;;;;;;;;;;;;;;;;;;;;;
2023/01/14 02:10:21;;;;;;;;;;;;;;;;;;;;;
2023/01/14 02:13:23;;;;;;;;;;;;;;;;;;;;;
2023/01/14 02:16:30;;;;;;;;;;;;;;;;;;;;;
2023/01/14 02:19:28;;;;;;;;;0.00;0.00;;;;;10.51;77.27;101423.88;6219643;22;71602;-86
2023/01/14 02:22:52;;;;;;;;;2.25;0.75;;;;;10.56;77.49;101410.75;6279921;22;45152;-86
2023/01/14 02:25:51;;;;;;;;;;;;;;;;;;;;;
2023/01/14 02:28:35;;;;;;;;;1.00;1.00;;;;;10.58;77.38;101399.34;6278323;22;75007;-86
2023/01/14 02:31:25;;;;;;;;;;;;;;;;;;;;;
2023/01/14 02:34:18;;;;;;;;;0.00;0.00;;;;;10.66;77.36;101406.41;6278793;22;68803;-86
2023/01/14 02:37:09;;;;;;;;;2.00;0.33;;;;;10.67;77.18;101403.78;6280068;22;45360;-85
2023/01/14 02:40:20;;;;;;;;;1.00;1.00;;;;;10.71;77.38;101417.84;6277196;22;47328;-87
2023/01/14 02:46:46;;;;;;;;;0.00;0.00;;;;;10.73;77.35;101401.19;6246691;22;45502;-87
2023/01/14 02:49:35;;;;;;;;;0.67;0.67;;;;;10.78;77.06;101406.50;6279970;22;45179;-84
2023/01/14 02:52:08;;;;;;;;;1.00;0.33;;;;;10.78;77.09;101401.22;6262126;22;46584;-84
2023/01/14 02:55:04;;;;;;;;;;;;;;;;;;;;;
2023/01/14 02:57:56;;;;;;;;;0.67;0.00;;;;;10.74;76.71;101373.09;6279296;22;67698;-85
2023/01/14 03:00:53;;;;;;;;;;;;;;;;;;;;;
2023/01/14 03:07:20;;;;;;;;;1.00;1.00;;;;;10.77;76.40;101357.31;6261552;22;45418;-85
2023/01/14 03:10:50;;;;;;;;;;;;;;;;;;;;;
2023/01/14 03:14:24;;;;;;;;;;;;;;;;;;;;;
2023/01/14 03:17:20;;;;;;;;;3.00;1.00;;;;;10.86;76.25;101338.06;6095732;23;75675;-86
2023/01/14 03:23:41;;;;;;;;;;;;;;;;;;;;;
2023/01/14 03:26:31;;;;;;;;;1.00;1.00;;;;;10.98;75.96;101319.66;6144865;23;73196;-86
2023/01/14 03:29:20;;;;;;;;;;;;;;;;;;;;;
2023/01/14 03:36:00;;;;;;;;;;;;;;;;;;;;;
2023/01/14 03:39:27;;;;;;;;;;;;;;;;;;;;;
2023/01/14 03:42:49;;;;;;;;;;;;;;;;;;;;;
2023/01/14 03:48:55;;;;;;;;;;;;;;;;;;;;;
2023/01/14 03:51:35;;;;;;;;;3.00;2.00;;;;;10.98;74.82;101266.97;6247783;22;71184;-85
2023/01/14 03:55:10;;;;;;;;;;;;;;;;;;;;;
2023/01/14 03:57:37;;;;;;;;;;;;;;;;;;;;;
2023/01/14 04:01:05;;;;;;;;;1.67;0.00;;;;;11.05;74.69;101245.03;6248357;22;68944;-85
2023/01/14 04:03:46;;;;;;;;;3.00;3.00;;;;;10.97;74.65;101226.56;6273460;22;45220;-86
2023/01/14 04:06:23;;;;;;;;;1.00;1.00;;;;;11.03;74.70;101223.06;6247015;22;48074;-84
2023/01/14 04:08:56;;;;;;;;;4.00;2.00;;;;;11.00;74.47;101209.88;6249575;22;45460;-86
2023/01/14 04:12:01;;;;;;;;;;;;;;;;;;;;;
2023/01/14 04:17:36;;;;;;;;;;;;;;;;;;;;;
2023/01/14 04:20:15;;;;;;;;;;;;;;;;;;;;;
2023/01/14 04:23:05;;;;;;;;;2.33;1.33;;;;;11.19;74.49;101190.59;6249479;22;68121;-85
2023/01/14 04:26:12;;;;;;;;;3.75;3.75;;;;;11.18;74.33;101186.22;6248159;22;45355;-86
2023/01/14 04:28:46;;;;;;;;;3.00;2.00;;;;;11.10;74.15;101158.09;6230826;22;47364;-85
2023/01/14 04:31:34;;;;;;;;;3.00;3.00;;;;;11.12;74.10;101151.94;6246022;22;45235;-86
2023/01/14 04:34:21;;;;;;;;;;;;;;;;;;;;;
2023/01/14 04:37:07;;;;;;;;;3.00;1.00;;;;;11.14;74.17;101165.97;6248472;22;72713;-85
2023/01/14 04:43:01;;;;;;;;;;;;;;;;;;;;;
2023/01/14 04:45:33;;;;;;;;;4.00;1.67;;;;;11.29;73.95;101172.16;6248193;22;67855;-86
2023/01/14 04:51:20;;;;;;;;;;;;;;;;;;;;;
2023/01/14 04:53:46;;;;;;;;;4.67;3.33;;;;;11.18;74.04;101144.03;6248197;22;71634;-87
2023/01/14 04:56:14;;;;;;;;;6.00;4.00;;;;;11.23;74.18;101142.28;6249623;22;45487;-86
2023/01/14 04:58:44;;;;;;;;;4.33;1.00;;;;;11.24;74.31;101122.06;6248964;22;45452;-86
2023/01/14 05:01:14;;;;;;;;;7.00;2.50;;;;;11.24;74.05;101125.56;6247509;22;48475;-87
2023/01/14 05:03:47;;;;;;;;;5.00;3.00;;;;;11.17;74.03;101101.88;6247117;22;45383;-86
2023/01/14 05:06:18;;;;;;;;;2.00;2.00;;;;;11.19;73.78;101102.75;6249312;22;45243;-86
2023/01/14 05:08:48;;;;;;;;;3.67;1.00;;;;;11.24;73.91;101125.56;6246392;22;45326;-86
2023/01/14 05:11:19;;;;;;;;;4.00;3.50;;;;;11.32;73.74;101125.59;6248444;22;47515;-86
2023/01/14 05:13:50;;;;;;;;;2.67;2.67;;;;;11.22;73.50;101092.19;6246267;22;45384;-86
2023/01/14 05:16:20;;;;;;;;;2.67;1.00;;;;;11.24;73.95;101104.50;6246961;22;45317;-86
2023/01/14 05:18:48;;;;;;;;;4.00;3.00;;;;;11.34;73.63;101104.50;6248836;22;45341;-86
2023/01/14 05:21:24;;;;;;;;;;;;;;;;;;;;;
2023/01/14 05:23:52;;;;;;;;;5.33;2.67;;;;;11.23;73.57;101099.25;6247915;22;70949;-86
2023/01/14 05:26:20;;;;;;;;;4.67;2.67;;;;;11.27;73.62;101093.06;6247028;22;45386;-86
2023/01/14 05:29:12;;;;;;;;;;;;;;;;;;;;;
2023/01/14 05:31:53;;;;;;;;;;;;;;;;;;;;;
2023/01/14 05:34:51;;;;;;;;;;;;;;;;;;;;;
2023/01/14 05:37:45;;;;;;;;;2.50;2.50;;;;;11.30;73.20;101050.03;6275466;22;67741;-86
2023/01/14 05:41:13;;;;;;;;;;;;;;;;;;;;;
2023/01/14 05:48:14;;;;;;;;;;;;;;;;;;;;;
2023/01/14 05:51:12;;;;;;;;;;;;;;;;;;;;;
2023/01/14 05:54:05;;;;;;;;;3.00;1.50;;;;;11.26;73.20;101007.00;6278487;22;73151;-86
2023/01/14 06:06:20;;;;;;;;;4.00;1.33;;;;;11.21;72.87;100998.22;6267842;22;45323;-86
2023/01/14 06:07:12;;;;;;;;;;;;;;;;;;;;;
2023/01/14 06:09:40;;;;;;;;;;;;;;;;;;;;;
2023/01/14 06:12:33;;;;;;;;;2.33;1.33;;;;;11.20;72.90;100967.47;6278235;22;72769;-86
2023/01/14 06:19:11;;;;;;;;;;;;;;;;;;;;;
2023/01/14 06:22:07;;;;;;;;;;;;;;;;;;;;;
2023/01/14 06:25:26;;;;;;;;;;;;;;;;;;;;;
2023/01/14 06:28:00;;;;;;;;;2.33;2.33;;;;;11.10;73.07;100968.38;6273995;22;69237;-86
2023/01/14 06:31:11;;;;;;;;;;;;;;;;;;;;;
2023/01/14 06:34:42;;;;;;;;;;;;;;;;;;;;;
2023/01/14 06:37:56;;;;;;;;;;;;;;;;;;;;;
2023/01/14 06:44:27;;;;;;;;;;;;;;;;;;;;;
2023/01/14 06:54:22;;;;;;;;;1.00;1.00;;;;;10.99;73.88;100932.41;6273831;22;45300;-86
2023/01/14 06:57:46;;;;;;;;;;;;;;;;;;;;;
2023/01/14 07:00:37;;;;;;;;;0.33;0.33;;;;;11.01;74.23;100903.41;6258607;22;75243;-86
2023/01/14 07:03:06;;;;;;;;;5.00;2.00;;;;;11.02;74.25;100897.28;6251917;22;45426;-86
2023/01/14 07:05:34;;;;;;;;;1.00;0.67;;;;;11.03;74.21;100906.91;6278999;22;45306;-87
2023/01/14 07:08:38;;;;;;;;;;;;;;;;;;;;;
2023/01/14 07:11:31;;;;;;;;;2.00;1.00;;;;;11.01;74.42;100871.78;6278338;22;74971;-83
2023/01/14 07:17:43;;;;;;;;;2.00;2.00;;;;;10.95;74.17;100861.28;6188487;23;45326;-87
2023/01/14 07:38:35;;;;;;;;;;;;;;;;;;;;;
2023/01/14 07:41:20;;;;;;;;;;;;;;;;;;;;;
2023/01/14 07:43:55;;;;;;;;;;;;;;;;;;;;;
2023/01/14 07:47:20;;;;;;;;;3.00;2.00;;;;;10.92;74.93;100796.31;6277373;22;75107;-91
2023/01/14 07:56:15;;;;;;;;;1.00;1.00;;;;;11.03;75.48;100809.44;6095930;23;45252;-90
2023/01/14 10:34:10;;;;;;;;;3.00;1.00;;;;;12.27;76.07;100629.09;6239925;22;44963;-93
2023/01/14 11:42:27;;;;;;;;;1.00;1.00;;;;;12.46;77.27;100513.56;6205231;22;45449;-81
2023/01/14 11:45:11;;;;;;;;;1.00;1.00;;;;;12.45;77.12;100517.09;6183202;22;47384;-81
2023/01/14 11:48:51;;;;;;;;;;;;;;;;;;;;;
2023/01/14 11:55:35;;;;;;;;;;;;;;;;;;;;;
2023/01/14 13:51:12;;;;;;;;;2.00;1.00;;;;;13.02;78.96;100204.38;6264848;22;46991;-84
2023/01/14 14:37:21;;;;;;;;;2.00;2.00;;;;;13.00;80.32;100179.75;6256339;22;45925;-86
2023/01/14 14:40:05;;;;;;;;;1.00;1.00;;;;;12.94;79.96;100151.69;6245134;22;45379;-85
2023/01/14 14:46:27;;;;;;;;;0.00;0.00;;;;;13.05;80.40;100151.44;6247226;22;45423;-86
2023/01/14 14:50:02;;;;;;;;;;;;;;;;;;;;;
2023/01/14 18:01:52;;;;;;;;;0.00;0.00;;;;;14.00;80.09;100031.72;6247010;22;45664;-88
2023/01/14 18:04:36;;;;;;;;;2.50;2.00;;;;;14.00;80.07;100024.66;6246495;22;46211;-88
2023/01/14 18:07:02;;;;;;;;;3.33;3.33;;;;;13.99;80.17;100033.50;6219139;22;45224;-91
2023/01/14 18:09:28;;;;;;;;;1.33;1.33;;;;;13.96;80.53;100025.66;6219941;22;45404;-89
2023/01/14 18:11:53;;;;;;;;;4.00;3.00;;;;;13.93;80.22;99998.44;6243175;22;45329;-86
2023/01/14 18:14:36;;;;;;;;;0.00;0.00;;;;;13.95;80.45;100020.41;6219741;22;47708;-88
2023/01/14 18:17:12;;;;;;;;;1.00;0.00;;;;;13.96;80.15;100019.50;6218622;22;45361;-89
2023/01/14 18:19:38;;;;;;;;;0.00;0.00;;;;;13.93;80.17;99994.00;6245348;22;45095;-83
2023/01/14 18:22:03;;;;;;;;;0.00;0.00;;;;;13.94;80.17;100010.75;6192907;22;46406;-83
2023/01/14 18:24:32;;;;;;;;;1.00;0.00;;;;;13.97;80.43;100016.81;6242704;22;46134;-84
2023/01/14 18:27:19;;;;;;;;;0.00;0.00;;;;;13.96;80.49;100023.03;6230868;22;44779;-83
2023/01/14 18:30:52;;;;;;;;;1.00;0.00;;;;;14.00;80.80;100035.22;6264336;22;44712;-84
2023/01/14 18:33:17;;;;;;;;;0.67;0.67;;;;;13.92;81.09;100007.28;6188719;22;45699;-84
2023/01/14 18:38:58;;;;;;;;;4.00;2.33;;;;;13.92;81.14;100023.16;6163732;22;45405;-83
2023/01/14 18:41:53;;;;;;;;;2.00;1.33;;;;;13.86;81.79;100096.50;6215238;22;45467;-84
2023/01/14 18:44:32;;;;;;;;;4.67;3.00;;;;;13.80;81.43;100131.06;6201805;22;45557;-85
2023/01/14 18:47:56;;;;;;;;;1.00;1.00;;;;;13.54;81.27;100122.94;6218857;22;47951;-84
2023/01/14 18:50:41;;;;;;;;;;;;;;;;;;;;;
2023/01/14 19:00:20;;;;;;;;;1.00;1.00;;;;;12.92;80.54;100134.13;6129789;22;45633;-84
2023/01/14 19:02:50;;;;;;;;;0.33;0.33;;;;;12.93;80.70;100159.63;6185053;22;45583;-85
2023/01/14 19:05:16;;;;;;;;;0.00;0.00;;;;;12.83;80.56;100171.31;6210159;22;45332;-86
2023/01/14 19:07:43;;;;;;;;;1.00;1.00;;;;;12.73;80.23;100165.38;6216568;22;45286;-87
2023/01/14 19:10:09;;;;;;;;;1.00;1.00;;;;;12.61;80.31;100166.50;6213052;22;47971;-88
2023/01/14 19:17:24;;;;;;;;;;;;;;;;;;;;;
2023/01/14 19:23:44;;;;;;;;;;;;;;;;;;;;;
2023/01/14 19:26:12;;;;;;;;;0.00;0.00;;;;;12.09;79.75;100167.56;6074455;22;72111;-88
2023/01/14 19:29:00;;;;;;;;;2.00;2.00;;;;;12.10;79.83;100193.03;6214623;22;45201;-86
2023/01/14 19:31:29;;;;;;;;;1.00;1.00;;;;;11.99;80.01;100171.28;6187527;22;45366;-88
2023/01/14 19:33:58;;;;;;;;;0.67;0.67;;;;;11.91;79.90;100168.78;6215508;22;46155;-88
2023/01/14 19:36:23;;;;;;;;;11.00;7.00;;;;;11.88;80.44;100158.28;6213394;22;45261;-86
2023/01/14 19:38:51;;;;;;;;;2.33;1.00;;;;;11.95;79.89;100167.84;6191591;22;45522;-88
2023/01/14 19:42:20;;;;;;;;;3.00;3.00;;;;;11.96;80.49;100159.00;6214540;22;45515;-87
2023/01/14 19:44:44;;;;;;;;;2.00;2.00;;;;;11.87;80.25;100143.38;6215733;22;46073;-92
2023/01/14 19:47:12;;;;;;;;;2.00;2.00;;;;;11.93;80.29;100167.00;6194572;22;45284;-90
2023/01/14 19:49:38;;;;;;;;;3.67;2.00;;;;;11.88;80.54;100153.00;6219648;22;45223;-86
2023/01/14 19:52:03;;;;;;;;;3.00;3.00;;;;;11.89;80.22;100163.53;6192222;22;45320;-90
2023/01/14 19:57:22;;;;;;;;;3.33;3.00;;;;;11.85;79.93;100185.56;6205555;22;45436;-86
2023/01/14 19:59:50;;;;;;;;;3.00;3.00;;;;;11.78;80.00;100169.88;6200496;22;45297;-87
2023/01/14 20:02:26;;;;;;;;;2.00;2.00;;;;;11.81;79.64;100177.72;6248789;22;45329;-89
2023/01/14 20:05:05;;;;;;;;;3.33;2.00;;;;;11.80;79.57;100178.63;6226665;22;46647;-86
2023/01/14 20:07:30;;;;;;;;;3.00;3.00;;;;;11.69;79.34;100157.72;6225039;22;45372;-87
2023/01/14 20:10:09;;;;;;;;;;;;;;;;;;;;;
2023/01/14 22:08:55;;;;;;;;;1.00;1.00;;;;;9.84;77.40;100263.69;6214223;22;45517;-89
2023/01/14 22:27:00;;;;;;;;;;;;;;;;;;;;;
2023/01/14 23:36:06;;;;;;;;;0.00;0.00;;;;;9.29;77.67;100288.59;6287180;22;1422541;-84
2023/01/14 23:38:34;;;;;;;;;1.00;1.00;;;;;9.30;77.86;100297.34;6230207;22;45264;-86
2023/01/14 23:41:25;;;;;;;;;1.00;1.00;;;;;9.22;77.86;100279.88;6203078;22;45389;-88
2023/01/14 23:44:13;;;;;;;;;;;;;;;;;;;;;
2023/01/14 23:47:13;;;;;;;;;1.00;0.00;;;;;9.12;77.84;100277.31;6226196;22;75057;-89
2023/01/14 23:53:31;;;;;;;;;;;;;;;;;;;;;
2023/01/14 23:56:15;;;;;;;;;1.50;1.50;;;;;9.26;77.76;100294.72;6073129;23;72967;-89
2023/01/14 23:58:49;;;;;;;;;2.25;1.25;;;;;9.26;77.83;100292.09;6067220;23;45970;-87
